sensor_id;sensor_type;location;lat;lon;timestamp;pressure;altitude;pressure_sealevel;temperature;humidity
12793;BME280;6460;42.684;23.260;2023-01-28T00:01:33;93956.84;;;0.12;100.00
12793;BME280;6460;42.684;23.260;2023-01-28T00:03:59;93952.22;;;0.26;100.00
12793;BME280;6460;42.684;23.260;2023-01-28T00:06:28;93954.91;;;0.34;100.00
12793;BME280;6460;42.684;23.260;2023-01-28T00:08:54;93963.69;;;0.13;100.00
12793;BME280;6460;42.684;23.260;2023-01-28T00:11:21;93966.03;;;0.14;100.00
12793;BME280;6460;42.684;23.260;2023-01-28T00:13:50;93969.38;;;0.37;100.00
12793;BME280;6460;42.684;23.260;2023-01-28T00:16:17;93976.53;;;0.45;100.00
12793;BME280;6460;42.684;23.260;2023-01-28T00:18:44;93982.59;;;0.37;100.00
12793;BME280;6460;42.684;23.260;2023-01-28T00:21:12;93977.31;;;0.37;100.00
12793;BME280;6460;42.684;23.260;2023-01-28T00:23:44;93981.91;;;0.23;100.00
12793;BME280;6460;42.684;23.260;2023-01-28T00:26:14;93978.44;;;0.14;100.00
12793;BME280;6460;42.684;23.260;2023-01-28T00:28:42;93985.59;;;0.13;100.00
12793;BME280;6460;42.684;23.260;2023-01-28T00:31:11;93984.09;;;0.29;100.00
12793;BME280;6460;42.684;23.260;2023-01-28T00:33:41;93991.66;;;0.14;100.00
12793;BME280;6460;42.684;23.260;2023-01-28T00:36:09;93994.38;;;0.31;100.00
12793;BME280;6460;42.684;23.260;2023-01-28T00:38:36;93992.88;;;0.08;100.00
12793;BME280;6460;42.684;23.260;2023-01-28T00:41:09;93989.88;;;0.31;100.00
12793;BME280;6460;42.684;23.260;2023-01-28T00:43:37;93996.06;;;0.27;100.00
12793;BME280;6460;42.684;23.260;2023-01-28T00:46:04;93995.47;;;0.30;100.00
12793;BME280;6460;42.684;23.260;2023-01-28T00:48:32;93995.47;;;0.30;100.00
12793;BME280;6460;42.684;23.260;2023-01-28T00:50:59;93990.63;;;0.23;100.00
12793;BME280;6460;42.684;23.260;2023-01-28T00:53:26;93996.53;;;0.29;100.00
12793;BME280;6460;42.684;23.260;2023-01-28T00:55:53;94004.31;;;0.25;100.00
12793;BME280;6460;42.684;23.260;2023-01-28T00:58:21;94004.41;;;0.12;100.00
12793;BME280;6460;42.684;23.260;2023-01-28T01:00:48;94006.63;;;0.27;100.00
12793;BME280;6460;42.684;23.260;2023-01-28T01:03:15;93999.94;;;0.21;100.00
12793;BME280;6460;42.684;23.260;2023-01-28T01:05:42;93994.38;;;0.31;100.00
12793;BME280;6460;42.684;23.260;2023-01-28T01:08:09;93997.91;;;0.18;100.00
12793;BME280;6460;42.684;23.260;2023-01-28T01:10:37;93996.06;;;0.27;100.00
12793;BME280;6460;42.684;23.260;2023-01-28T01:13:05;94008.72;;;0.08;100.00
12793;BME280;6460;42.684;23.260;2023-01-28T01:15:33;94009.41;;;-0.09;100.00
12793;BME280;6460;42.684;23.260;2023-01-28T01:18:00;94001.94;;;0.15;100.00
12793;BME280;6460;42.684;23.260;2023-01-28T01:20:28;94006.13;;;0.16;100.00
12793;BME280;6460;42.684;23.260;2023-01-28T01:22:57;94009.38;;;0.13;100.00
12793;BME280;6460;42.684;23.260;2023-01-28T01:25:24;94008.28;;;0.14;100.00
12793;BME280;6460;42.684;23.260;2023-01-28T01:27:51;94008.72;;;0.08;100.00
12793;BME280;6460;42.684;23.260;2023-01-28T01:30:18;94005.91;;;0.04;100.00
12793;BME280;6460;42.684;23.260;2023-01-28T01:32:47;94006.06;;;-0.23;100.00
12793;BME280;6460;42.684;23.260;2023-01-28T01:35:14;94023.38;;;-0.09;100.00
12793;BME280;6460;42.684;23.260;2023-01-28T01:37:43;94015.47;;;-0.09;100.00
12793;BME280;6460;42.684;23.260;2023-01-28T01:40:11;94016.84;;;-0.11;100.00
12793;BME280;6460;42.684;23.260;2023-01-28T01:42:38;94010.25;;;-0.22;100.00
12793;BME280;6460;42.684;23.260;2023-01-28T01:45:06;94010.44;;;-0.19;100.00
12793;BME280;6460;42.684;23.260;2023-01-28T01:47:41;94015.72;;;-0.19;100.00
12793;BME280;6460;42.684;23.260;2023-01-28T01:50:18;94018.84;;;-0.17;100.00
12793;BME280;6460;42.684;23.260;2023-01-28T01:52:53;94010.78;;;-0.12;100.00
12793;BME280;6460;42.684;23.260;2023-01-28T01:55:24;94019.47;;;-0.20;100.00
12793;BME280;6460;42.684;23.260;2023-01-28T01:57:54;94016.78;;;0.03;100.00
12793;BME280;6460;42.684;23.260;2023-01-28T02:00:22;94014.50;;;-0.13;100.00
12793;BME280;6460;42.684;23.260;2023-01-28T02:02:50;94018.31;;;-0.27;100.00
12793;BME280;6460;42.684;23.260;2023-01-28T02:05:21;94019.88;;;-0.26;100.00
12793;BME280;6460;42.684;23.260;2023-01-28T02:07:51;94019.53;;;-0.03;100.00
12793;BME280;6460;42.684;23.260;2023-01-28T02:10:40;94018.25;;;-0.14;100.00
12793;BME280;6460;42.684;23.260;2023-01-28T02:13:07;94020.84;;;0.09;100.00
12793;BME280;6460;42.684;23.260;2023-01-28T02:15:35;94024.13;;;-0.17;100.00
12793;BME280;6460;42.684;23.260;2023-01-28T02:18:03;94028.31;;;-0.16;100.00
12793;BME280;6460;42.684;23.260;2023-01-28T02:20:45;94024.59;;;-0.15;100.00
12793;BME280;6460;42.684;23.260;2023-01-28T02:23:30;94021.41;;;-0.25;100.00
12793;BME280;6460;42.684;23.260;2023-01-28T02:26:25;94031.84;;;0.02;100.00
12793;BME280;6460;42.684;23.260;2023-01-28T02:29:04;94026.25;;;0.04;100.00
12793;BME280;6460;42.684;23.260;2023-01-28T02:31:37;94031.13;;;-0.12;100.00
12793;BME280;6460;42.684;23.260;2023-01-28T02:34:09;94019.28;;;0.08;100.00
12793;BME280;6460;42.684;23.260;2023-01-28T02:36:41;94030.84;;;-0.11;100.00
12793;BME280;6460;42.684;23.260;2023-01-28T02:39:13;94030.63;;;-0.23;100.00
12793;BME280;6460;42.684;23.260;2023-01-28T02:41:45;94021.66;;;-0.13;100.00
12793;BME280;6460;42.684;23.260;2023-01-28T02:44:15;94028.06;;;-0.06;100.00
12793;BME280;6460;42.684;23.260;2023-01-28T02:46:43;94026.94;;;-0.13;100.00
12793;BME280;6460;42.684;23.260;2023-01-28T02:49:38;94031.56;;;-0.19;100.00
12793;BME280;6460;42.684;23.260;2023-01-28T02:52:18;94028.56;;;-0.04;100.00
12793;BME280;6460;42.684;23.260;2023-01-28T02:55:14;94022.94;;;-0.11;100.00
12793;BME280;6460;42.684;23.260;2023-01-28T02:57:49;94030.84;;;-0.11;100.00
12793;BME280;6460;42.684;23.260;2023-01-28T03:00:25;94035.06;;;-0.10;100.00
12793;BME280;6460;42.684;23.260;2023-01-28T03:03:01;94035.06;;;-0.10;100.00
12793;BME280;6460;42.684;23.260;2023-01-28T03:05:34;94045.31;;;-0.08;100.00
12793;BME280;6460;42.684;23.260;2023-01-28T03:08:03;94035.13;;;-0.23;100.00
12793;BME280;6460;42.684;23.260;2023-01-28T03:10:54;94037.25;;;-0.25;100.00
12793;BME280;6460;42.684;23.260;2023-01-28T03:13:40;94039.47;;;0.04;100.00
12793;BME280;6460;42.684;23.260;2023-01-28T03:16:28;94045.09;;;0.11;100.00
12793;BME280;6460;42.684;23.260;2023-01-28T03:19:16;94034.19;;;0.04;100.00
12793;BME280;6460;42.684;23.260;2023-01-28T03:22:01;94040.59;;;0.11;100.00
12793;BME280;6460;42.684;23.260;2023-01-28T03:24:49;94046.25;;;0.18;100.00
12793;BME280;6460;42.684;23.260;2023-01-28T03:27:39;94040.31;;;0.13;100.00
12793;BME280;6460;42.684;23.260;2023-01-28T03:30:34;94045.25;;;0.06;100.00
12793;BME280;6460;42.684;23.260;2023-01-28T03:33:23;94044.59;;;0.00;100.00
12793;BME280;6460;42.684;23.260;2023-01-28T03:36:08;94050.41;;;-0.34;100.00
12793;BME280;6460;42.684;23.260;2023-01-28T03:38:53;94039.28;;;-0.22;100.00
12793;BME280;6460;42.684;23.260;2023-01-28T03:41:23;94051.47;;;-0.13;100.00
12793;BME280;6460;42.684;23.260;2023-01-28T03:43:50;94052.22;;;-0.21;100.00
12793;BME280;6460;42.684;23.260;2023-01-28T03:46:18;94050.41;;;-0.34;100.00
12793;BME280;6460;42.684;23.260;2023-01-28T03:48:46;94056.50;;;-0.47;100.00
12793;BME280;6460;42.684;23.260;2023-01-28T03:51:14;94054.19;;;-0.26;100.00
12793;BME280;6460;42.684;23.260;2023-01-28T03:53:42;94062.31;;;-0.23;100.00
12793;BME280;6460;42.684;23.260;2023-01-28T03:56:09;94063.97;;;-0.27;100.00
12793;BME280;6460;42.684;23.260;2023-01-28T03:58:43;94067.38;;;-0.48;100.00
12793;BME280;6460;42.684;23.260;2023-01-28T04:01:18;94058.69;;;-0.27;100.00
12793;BME280;6460;42.684;23.260;2023-01-28T04:03:47;94076.81;;;-0.34;100.00
12793;BME280;6460;42.684;23.260;2023-01-28T04:06:14;94061.88;;;-0.16;100.00
12793;BME280;6460;42.684;23.260;2023-01-28T04:08:41;94064.69;;;-0.35;100.00
12793;BME280;6460;42.684;23.260;2023-01-28T04:11:17;94066.84;;;-0.37;100.00
12793;BME280;6460;42.684;23.260;2023-01-28T04:13:46;94068.78;;;-0.29;100.00
12793;BME280;6460;42.684;23.260;2023-01-28T04:16:16;94073.91;;;-0.46;100.00
12793;BME280;6460;42.684;23.260;2023-01-28T04:18:43;94075.38;;;-0.18;100.00
12793;BME280;6460;42.684;23.260;2023-01-28T04:21:12;94077.22;;;-0.40;100.00
12793;BME280;6460;42.684;23.260;2023-01-28T04:23:38;94078.00;;;-0.40;100.00
12793;BME280;6460;42.684;23.260;2023-01-28T04:26:05;94084.47;;;-0.46;100.00
12793;BME280;6460;42.684;23.260;2023-01-28T04:28:32;94078.56;;;-0.29;100.00
12793;BME280;6460;42.684;23.260;2023-01-28T04:30:59;94081.91;;;-0.37;100.00
12793;BME280;6460;42.684;23.260;2023-01-28T04:33:27;94090.00;;;-0.34;100.00
12793;BME280;6460;42.684;23.260;2023-01-28T04:35:54;94091.59;;;-0.46;100.00
12793;BME280;6460;42.684;23.260;2023-01-28T04:38:22;94093.69;;;-0.57;100.00
12793;BME280;6460;42.684;23.260;2023-01-28T04:40:49;94097.25;;;-0.39;100.00
12793;BME280;6460;42.684;23.260;2023-01-28T04:43:16;94097.19;;;-0.48;100.00
12793;BME280;6460;42.684;23.260;2023-01-28T04:45:44;94103.75;;;-0.59;100.00
12793;BME280;6460;42.684;23.260;2023-01-28T04:48:12;94103.91;;;-0.42;100.00
12793;BME280;6460;42.684;23.260;2023-01-28T04:50:41;94109.41;;;-0.52;100.00
12793;BME280;6460;42.684;23.260;2023-01-28T04:53:08;94102.97;;;-0.24;100.00
12793;BME280;6460;42.684;23.260;2023-01-28T04:55:37;94108.84;;;-0.27;100.00
12793;BME280;6460;42.684;23.260;2023-01-28T04:58:04;94105.19;;;-0.39;100.00
12793;BME280;6460;42.684;23.260;2023-01-28T05:00:31;94111.59;;;-0.68;100.00
12793;BME280;6460;42.684;23.260;2023-01-28T05:02:58;94111.66;;;-0.45;100.00
12793;BME280;6460;42.684;23.260;2023-01-28T05:05:25;94116.34;;;-0.42;100.00
12793;BME280;6460;42.684;23.260;2023-01-28T05:07:54;94118.44;;;-0.31;100.00
12793;BME280;6460;42.684;23.260;2023-01-28T05:10:22;94119.84;;;-0.47;100.00
12793;BME280;6460;42.684;23.260;2023-01-28T05:12:51;94120.63;;;-0.46;100.00
12793;BME280;6460;42.684;23.260;2023-01-28T05:15:19;94123.84;;;-0.36;100.00
12793;BME280;6460;42.684;23.260;2023-01-28T05:17:46;94128.78;;;-0.21;100.00
12793;BME280;6460;42.684;23.260;2023-01-28T05:20:14;94133.16;;;-0.38;100.00
12793;BME280;6460;42.684;23.260;2023-01-28T05:22:41;94134.09;;;-0.34;100.00
12793;BME280;6460;42.684;23.260;2023-01-28T05:25:09;94137.44;;;-0.42;100.00
12793;BME280;6460;42.684;23.260;2023-01-28T05:27:36;94144.88;;;-0.44;100.00
12793;BME280;6460;42.684;23.260;2023-01-28T05:30:06;94123.53;;;-0.34;100.00
12793;BME280;6460;42.684;23.260;2023-01-28T05:32:33;94140.78;;;-0.15;100.00
12793;BME280;6460;42.684;23.260;2023-01-28T05:35:00;94134.66;;;-0.24;100.00
12793;BME280;6460;42.684;23.260;2023-01-28T05:37:27;94137.22;;;-0.32;100.00
12793;BME280;6460;42.684;23.260;2023-01-28T05:39:54;94145.06;;;-0.41;100.00
12793;BME280;6460;42.684;23.260;2023-01-28T05:42:22;94150.13;;;-0.44;100.00
12793;BME280;6460;42.684;23.260;2023-01-28T05:44:49;94144.56;;;-0.29;100.00
12793;BME280;6460;42.684;23.260;2023-01-28T05:47:17;94146.53;;;-0.13;100.00
12793;BME280;6460;42.684;23.260;2023-01-28T05:49:44;94147.59;;;-0.36;100.00
12793;BME280;6460;42.684;23.260;2023-01-28T05:52:11;94150.72;;;-0.34;100.00
12793;BME280;6460;42.684;23.260;2023-01-28T05:54:38;94150.72;;;-0.34;100.00
12793;BME280;6460;42.684;23.260;2023-01-28T05:57:06;94153.69;;;-0.49;100.00
12793;BME280;6460;42.684;23.260;2023-01-28T05:59:33;94152.75;;;-0.31;100.00
12793;BME280;6460;42.684;23.260;2023-01-28T06:02:00;94159.94;;;-0.45;100.00
12793;BME280;6460;42.684;23.260;2023-01-28T06:04:29;94153.69;;;-0.63;100.00
12793;BME280;6460;42.684;23.260;2023-01-28T06:06:56;94164.22;;;-0.35;100.00
12793;BME280;6460;42.684;23.260;2023-01-28T06:09:23;94166.81;;;-0.22;100.00
12793;BME280;6460;42.684;23.260;2023-01-28T06:11:50;94177.28;;;-0.17;100.00
12793;BME280;6460;42.684;23.260;2023-01-28T06:14:17;94168.38;;;-0.21;100.00
12793;BME280;6460;42.684;23.260;2023-01-28T06:16:44;94180.81;;;-0.35;100.00
12793;BME280;6460;42.684;23.260;2023-01-28T06:19:11;94180.59;;;-0.25;100.00
12793;BME280;6460;42.684;23.260;2023-01-28T06:21:40;94189.53;;;-0.34;100.00
12793;BME280;6460;42.684;23.260;2023-01-28T06:24:08;94182.59;;;-0.44;100.00
12793;BME280;6460;42.684;23.260;2023-01-28T06:26:35;94191.56;;;-0.31;100.00
12793;BME280;6460;42.684;23.260;2023-01-28T06:29:02;94191.44;;;-0.13;100.00
12793;BME280;6460;42.684;23.260;2023-01-28T06:31:30;94192.94;;;-0.20;100.00
12793;BME280;6460;42.684;23.260;2023-01-28T06:33:57;94201.13;;;-0.22;100.00
12793;BME280;6460;42.684;23.260;2023-01-28T06:36:24;94204.28;;;-0.20;100.00
12793;BME280;6460;42.684;23.260;2023-01-28T06:38:53;94203.41;;;-0.29;100.00
12793;BME280;6460;42.684;23.260;2023-01-28T06:41:20;94209.78;;;-0.30;100.00
12793;BME280;6460;42.684;23.260;2023-01-28T06:43:47;94208.59;;;-0.24;100.00
12793;BME280;6460;42.684;23.260;2023-01-28T06:46:14;94217.88;;;-0.26;100.00
12793;BME280;6460;42.684;23.260;2023-01-28T06:48:41;94217.78;;;-0.35;100.00
12793;BME280;6460;42.684;23.260;2023-01-28T06:51:08;94221.44;;;-0.09;100.00
12793;BME280;6460;42.684;23.260;2023-01-28T06:53:35;94230.88;;;-0.16;100.00
12793;BME280;6460;42.684;23.260;2023-01-28T06:56:04;94237.50;;;-0.19;100.00
12793;BME280;6460;42.684;23.260;2023-01-28T06:58:31;94243.78;;;-0.28;100.00
12793;BME280;6460;42.684;23.260;2023-01-28T07:00:58;94231.69;;;-0.29;100.00
12793;BME280;6460;42.684;23.260;2023-01-28T07:03:25;94238.69;;;-0.25;100.00
12793;BME280;6460;42.684;23.260;2023-01-28T07:05:52;94240.38;;;-0.29;100.00
12793;BME280;6460;42.684;23.260;2023-01-28T07:08:19;94242.03;;;-0.33;100.00
12793;BME280;6460;42.684;23.260;2023-01-28T07:10:46;94246.53;;;-0.33;100.00
12793;BME280;6460;42.684;23.260;2023-01-28T07:13:15;94255.72;;;-0.31;100.00
12793;BME280;6460;42.684;23.260;2023-01-28T07:15:42;94251.41;;;-0.27;100.00
12793;BME280;6460;42.684;23.260;2023-01-28T07:18:09;94266.66;;;-0.37;100.00
12793;BME280;6460;42.684;23.260;2023-01-28T07:20:36;94259.25;;;-0.35;100.00
12793;BME280;6460;42.684;23.260;2023-01-28T07:23:03;94267.72;;;-0.25;100.00
12793;BME280;6460;42.684;23.260;2023-01-28T07:25:30;94270.50;;;-0.30;100.00
12793;BME280;6460;42.684;23.260;2023-01-28T07:27:56;94272.94;;;-0.47;100.00
12793;BME280;6460;42.684;23.260;2023-01-28T07:30:25;94274.00;;;-0.21;100.00
12793;BME280;6460;42.684;23.260;2023-01-28T07:32:52;94277.44;;;-0.34;100.00
12793;BME280;6460;42.684;23.260;2023-01-28T07:35:20;94273.00;;;-0.25;100.00
12793;BME280;6460;42.684;23.260;2023-01-28T07:37:51;94274.59;;;-0.24;100.00
12793;BME280;6460;42.684;23.260;2023-01-28T07:40:19;94280.47;;;-0.40;100.00
12793;BME280;6460;42.684;23.260;2023-01-28T07:42:46;94282.69;;;-0.34;100.00
12793;BME280;6460;42.684;23.260;2023-01-28T07:45:14;94279.94;;;-0.02;100.00
12793;BME280;6460;42.684;23.260;2023-01-28T07:47:42;94282.59;;;-0.02;100.00
12793;BME280;6460;42.684;23.260;2023-01-28T07:50:10;94287.16;;;0.07;100.00
12793;BME280;6460;42.684;23.260;2023-01-28T07:52:37;94287.75;;;0.04;100.00
12793;BME280;6460;42.684;23.260;2023-01-28T07:55:09;94289.44;;;-0.01;100.00
12793;BME280;6460;42.684;23.260;2023-01-28T07:57:47;94296.97;;;0.06;100.00
12793;BME280;6460;42.684;23.260;2023-01-28T08:00:14;94288.72;;;0.21;100.00
12793;BME280;6460;42.684;23.260;2023-01-28T08:02:43;94292.59;;;0.24;100.00
12793;BME280;6460;42.684;23.260;2023-01-28T08:05:13;94295.03;;;0.34;100.00
12793;BME280;6460;42.684;23.260;2023-01-28T08:07:40;94301.41;;;0.19;100.00
12793;BME280;6460;42.684;23.260;2023-01-28T08:10:08;94312.09;;;0.00;100.00
12793;BME280;6460;42.684;23.260;2023-01-28T08:12:35;94309.59;;;-0.05;100.00
12793;BME280;6460;42.684;23.260;2023-01-28T08:15:03;94317.50;;;-0.05;100.00
12793;BME280;6460;42.684;23.260;2023-01-28T08:17:30;94311.53;;;0.04;100.00
12793;BME280;6460;42.684;23.260;2023-01-28T08:19:59;94313.38;;;0.17;100.00
12793;BME280;6460;42.684;23.260;2023-01-28T08:22:26;94316.63;;;0.00;100.00
12793;BME280;6460;42.684;23.260;2023-01-28T08:24:53;94312.47;;;0.21;100.00
12793;BME280;6460;42.684;23.260;2023-01-28T08:27:20;94320.22;;;0.18;100.00
12793;BME280;6460;42.684;23.260;2023-01-28T08:29:48;94314.13;;;0.31;100.00
12793;BME280;6460;42.684;23.260;2023-01-28T08:32:15;94308.84;;;0.31;100.00
12793;BME280;6460;42.684;23.260;2023-01-28T08:34:42;94319.25;;;0.49;100.00
12793;BME280;6460;42.684;23.260;2023-01-28T08:37:10;94310.69;;;0.44;100.00
12793;BME280;6460;42.684;23.260;2023-01-28T08:39:37;94313.78;;;0.46;100.00
12793;BME280;6460;42.684;23.260;2023-01-28T08:42:05;94313.22;;;0.93;100.00
12793;BME280;6460;42.684;23.260;2023-01-28T08:44:32;94317.81;;;0.79;100.00
12793;BME280;6460;42.684;23.260;2023-01-28T08:46:59;94331.03;;;0.79;100.00
12793;BME280;6460;42.684;23.260;2023-01-28T08:49:27;94317.53;;;0.67;100.00
12793;BME280;6460;42.684;23.260;2023-01-28T08:51:54;94321.06;;;0.76;100.00
12793;BME280;6460;42.684;23.260;2023-01-28T08:54:23;94311.31;;;0.63;100.00
12793;BME280;6460;42.684;23.260;2023-01-28T08:56:50;94321.28;;;0.88;100.00
12793;BME280;6460;42.684;23.260;2023-01-28T08:59:17;94322.50;;;0.82;100.00
12793;BME280;6460;42.684;23.260;2023-01-28T09:01:44;94323.44;;;1.08;100.00
12793;BME280;6460;42.684;23.260;2023-01-28T09:04:11;94322.25;;;1.15;100.00
12793;BME280;6460;42.684;23.260;2023-01-28T09:06:37;94320.06;;;1.17;100.00
12793;BME280;6460;42.684;23.260;2023-01-28T09:09:04;94316.06;;;1.28;100.00
12793;BME280;6460;42.684;23.260;2023-01-28T09:11:33;94326.44;;;0.93;100.00
12793;BME280;6460;42.684;23.260;2023-01-28T09:14:00;94320.91;;;0.81;100.00
12793;BME280;6460;42.684;23.260;2023-01-28T09:16:27;94323.94;;;0.88;100.00
12793;BME280;6460;42.684;23.260;2023-01-28T09:18:54;94332.09;;;0.78;100.00
12793;BME280;6460;42.684;23.260;2023-01-28T09:21:21;94320.75;;;0.78;100.00
12793;BME280;6460;42.684;23.260;2023-01-28T09:23:48;94333.97;;;1.00;100.00
12793;BME280;6460;42.684;23.260;2023-01-28T09:26:15;94326.44;;;0.93;100.00
12793;BME280;6460;42.684;23.260;2023-01-28T09:28:43;94331.91;;;0.97;100.00
12793;BME280;6460;42.684;23.260;2023-01-28T09:31:11;94318.88;;;1.00;100.00
12793;BME280;6460;42.684;23.260;2023-01-28T09:33:39;94326.44;;;1.16;100.00
12793;BME280;6460;42.684;23.260;2023-01-28T09:36:08;94328.47;;;1.19;100.00
12793;BME280;6460;42.684;23.260;2023-01-28T09:38:36;94328.81;;;0.95;100.00
12793;BME280;6460;42.684;23.260;2023-01-28T09:41:14;94328.72;;;1.08;100.00
12793;BME280;6460;42.684;23.260;2023-01-28T09:43:56;94327.38;;;1.11;100.00
12793;BME280;6460;42.684;23.260;2023-01-28T09:46:32;94328.84;;;0.81;100.00
12793;BME280;6460;42.684;23.260;2023-01-28T09:49:02;94336.50;;;0.83;100.00
12793;BME280;6460;42.684;23.260;2023-01-28T09:51:33;94330.44;;;1.04;100.00
12793;BME280;6460;42.684;23.260;2023-01-28T09:54:06;94318.59;;;1.02;100.00
12793;BME280;6460;42.684;23.260;2023-01-28T09:56:41;94328.81;;;0.95;100.00
12793;BME280;6460;42.684;23.260;2023-01-28T09:59:17;94326.56;;;0.88;100.00
12793;BME280;6460;42.684;23.260;2023-01-28T10:01:49;94328.25;;;0.84;100.00
12793;BME280;6460;42.684;23.260;2023-01-28T10:04:27;94314.44;;;0.87;100.00
12793;BME280;6460;42.684;23.260;2023-01-28T10:07:08;94324.03;;;0.83;100.00
12793;BME280;6460;42.684;23.260;2023-01-28T10:09:44;94317.13;;;0.96;100.00
12793;BME280;6460;42.684;23.260;2023-01-28T10:12:26;94315.69;;;0.90;100.00
12793;BME280;6460;42.684;23.260;2023-01-28T10:15:16;94319.63;;;0.92;100.00
12793;BME280;6460;42.684;23.260;2023-01-28T10:17:48;94316.84;;;0.97;100.00
12793;BME280;6460;42.684;23.260;2023-01-28T10:20:19;94329.97;;;0.44;100.00
12793;BME280;6460;42.684;23.260;2023-01-28T10:22:54;94323.69;;;0.76;100.00
12793;BME280;6460;42.684;23.260;2023-01-28T10:25:25;94329.47;;;0.78;100.00
12793;BME280;6460;42.684;23.260;2023-01-28T10:27:54;94317.72;;;0.71;100.00
12793;BME280;6460;42.684;23.260;2023-01-28T10:30:24;94320.88;;;0.95;100.00
12793;BME280;6460;42.684;23.260;2023-01-28T10:32:53;94327.19;;;1.08;100.00
12793;BME280;6460;42.684;23.260;2023-01-28T10:35:22;94326.31;;;0.54;100.00
12793;BME280;6460;42.684;23.260;2023-01-28T10:37:52;94329.31;;;0.61;100.00
12793;BME280;6460;42.684;23.260;2023-01-28T10:40:22;94318.03;;;0.69;100.00
12793;BME280;6460;42.684;23.260;2023-01-28T10:42:48;94327.16;;;0.63;100.00
12793;BME280;6460;42.684;23.260;2023-01-28T10:45:19;94330.50;;;0.55;100.00
12793;BME280;6460;42.684;23.260;2023-01-28T10:47:53;94324.34;;;0.60;100.00
12793;BME280;6460;42.684;23.260;2023-01-28T10:50:23;94324.16;;;0.56;100.00
12793;BME280;6460;42.684;23.260;2023-01-28T10:52:54;94313.81;;;0.68;100.00
12793;BME280;6460;42.684;23.260;2023-01-28T10:55:23;94323.31;;;0.69;100.00
12793;BME280;6460;42.684;23.260;2023-01-28T10:57:52;94314.25;;;0.84;100.00
12793;BME280;6460;42.684;23.260;2023-01-28T11:00:26;94327.41;;;0.75;100.00
12793;BME280;6460;42.684;23.260;2023-01-28T11:02:56;94321.75;;;0.68;100.00
12793;BME280;6460;42.684;23.260;2023-01-28T11:05:25;94321.25;;;0.80;100.00
12793;BME280;6460;42.684;23.260;2023-01-28T11:08:03;94316.59;;;0.63;100.00
12793;BME280;6460;42.684;23.260;2023-01-28T11:10:32;94321.91;;;0.49;100.00
12793;BME280;6460;42.684;23.260;2023-01-28T11:13:02;94314.25;;;0.84;100.00
12793;BME280;6460;42.684;23.260;2023-01-28T11:15:30;94321.16;;;0.93;100.00
12793;BME280;6460;42.684;23.260;2023-01-28T11:18:02;94310.41;;;0.90;100.00
12793;BME280;6460;42.684;23.260;2023-01-28T11:20:36;94311.53;;;0.97;100.00
12793;BME280;6460;42.684;23.260;2023-01-28T11:23:04;94307.88;;;1.07;100.00
12793;BME280;6460;42.684;23.260;2023-01-28T11:25:48;94304.47;;;1.15;100.00
12793;BME280;6460;42.684;23.260;2023-01-28T11:28:25;94308.53;;;1.13;100.00
12793;BME280;6460;42.684;23.260;2023-01-28T11:30:53;94305.63;;;1.23;100.00
12793;BME280;6460;42.684;23.260;2023-01-28T11:33:27;94299.44;;;1.27;100.00
12793;BME280;6460;42.684;23.260;2023-01-28T11:36:03;94314.53;;;1.27;100.00
12793;BME280;6460;42.684;23.260;2023-01-28T11:38:30;94308.63;;;1.30;100.00
12793;BME280;6460;42.684;23.260;2023-01-28T11:40:57;94320.63;;;1.27;100.00
12793;BME280;6460;42.684;23.260;2023-01-28T11:43:27;94310.28;;;1.48;100.00
12793;BME280;6460;42.684;23.260;2023-01-28T11:46:03;94311.28;;;1.30;100.00
12793;BME280;6460;42.684;23.260;2023-01-28T11:48:42;94303.34;;;1.30;100.00
12793;BME280;6460;42.684;23.260;2023-01-28T11:51:29;94304.00;;;1.44;100.00
12793;BME280;6460;42.684;23.260;2023-01-28T11:54:17;94305.88;;;1.13;100.00
12793;BME280;6460;42.684;23.260;2023-01-28T11:56:58;94308.84;;;1.42;100.00
12793;BME280;6460;42.684;23.260;2023-01-28T11:59:48;94302.81;;;1.50;100.00
12793;BME280;6460;42.684;23.260;2023-01-28T12:02:30;94297.06;;;1.56;100.00
12793;BME280;6460;42.684;23.260;2023-01-28T12:08:05;94303.16;;;1.57;100.00
12793;BME280;6460;42.684;23.260;2023-01-28T12:10:42;94315.56;;;1.48;100.00
12793;BME280;6460;42.684;23.260;2023-01-28T12:13:26;94307.03;;;1.20;100.00
12793;BME280;6460;42.684;23.260;2023-01-28T12:16:12;94307.44;;;1.44;100.00
12793;BME280;6460;42.684;23.260;2023-01-28T12:22:10;94297.25;;;1.60;100.00
12793;BME280;6460;42.684;23.260;2023-01-28T12:24:51;94303.25;;;1.83;100.00
12793;BME280;6460;42.684;23.260;2023-01-28T12:27:32;94308.19;;;1.67;100.00
12793;BME280;6460;42.684;23.260;2023-01-28T12:30:08;94303.50;;;1.64;100.00
12793;BME280;6460;42.684;23.260;2023-01-28T12:32:52;94307.16;;;1.46;100.00
12793;BME280;6460;42.684;23.260;2023-01-28T12:35:30;94304.91;;;1.08;100.00
12793;BME280;6460;42.684;23.260;2023-01-28T12:38:14;94319.47;;;1.20;100.00
12793;BME280;6460;42.684;23.260;2023-01-28T12:40:53;94307.28;;;1.41;100.00
12793;BME280;6460;42.684;23.260;2023-01-28T12:43:42;94314.50;;;1.49;100.00
12793;BME280;6460;42.684;23.260;2023-01-28T12:46:22;94322.00;;;1.55;100.00
12793;BME280;6460;42.684;23.260;2023-01-28T12:48:54;94318.16;;;1.31;100.00
12793;BME280;6460;42.684;23.260;2023-01-28T12:51:29;94324.44;;;1.43;100.00
12793;BME280;6460;42.684;23.260;2023-01-28T12:54:03;94332.91;;;1.32;100.00
12793;BME280;6460;42.684;23.260;2023-01-28T12:56:35;94331.72;;;1.16;100.00
12793;BME280;6460;42.684;23.260;2023-01-28T12:59:09;94333.28;;;1.39;100.00
12793;BME280;6460;42.684;23.260;2023-01-28T13:01:40;94332.81;;;1.37;100.00
12793;BME280;6460;42.684;23.260;2023-01-28T13:04:12;94328.13;;;1.34;100.00
12793;BME280;6460;42.684;23.260;2023-01-28T13:06:46;94323.25;;;1.97;100.00
12793;BME280;6460;42.684;23.260;2023-01-28T13:09:18;94331.59;;;1.82;100.00
12793;BME280;6460;42.684;23.260;2023-01-28T13:11:47;94328.75;;;1.70;100.00
12793;BME280;6460;42.684;23.260;2023-01-28T13:14:16;94328.63;;;1.75;100.00
12793;BME280;6460;42.684;23.260;2023-01-28T13:16:43;94340.66;;;1.81;100.00
12793;BME280;6460;42.684;23.260;2023-01-28T13:19:22;94350.91;;;1.43;100.00
12793;BME280;6460;42.684;23.260;2023-01-28T13:21:50;94340.97;;;1.88;100.00